EGF2503 KECP-KSAV
Flight info
| Callsign | EGF2503 |
|---|---|
| Flight time | 0h 45m |
| Altitude | 23000 |
| Route | CABLO GPEEE TWEST TILEE |
| Aircraft | CRJ7/M-SDFGIRWY/S |
Departure
| Time | 2026-04-22 01:11 |
|---|---|
| Airport | Northwest Florida Beaches International Airport (KECP) |
Arrival
| Time | 2026-04-22 01:57 |
|---|---|
| Airport | Savannah Hilton Head International Airport (KSAV) |
| Time | Latitude | Longitude | Altitude | Speed | Heading |
|---|---|---|---|---|---|
| 2026-04-22 00:40 | 30.35500 | -85.79823 | 72 ft | 0 kts | 325° |
| 2026-04-22 01:02 | 30.35498 | -85.79822 | 63 ft | 2 kts | 325° |
| 2026-04-22 01:02 | 30.35483 | -85.79813 | 66 ft | 2 kts | 343° |
| 2026-04-22 01:03 | 30.35468 | -85.79816 | 70 ft | 2 kts | 49° |
| 2026-04-22 01:03 | 30.35460 | -85.79831 | 72 ft | 1 kts | 65° |
| 2026-04-22 01:03 | 30.35460 | -85.79832 | 72 ft | 0 kts | 65° |
| 2026-04-22 01:05 | 30.35461 | -85.79830 | 72 ft | 1 kts | 65° |
| 2026-04-22 01:05 | 30.35466 | -85.79816 | 70 ft | 3 kts | 66° |
| 2026-04-22 01:05 | 30.35481 | -85.79776 | 69 ft | 8 kts | 68° |
| 2026-04-22 01:05 | 30.35504 | -85.79706 | 65 ft | 10 kts | 70° |
| 2026-04-22 01:06 | 30.35509 | -85.79637 | 71 ft | 9 kts | 119° |
| 2026-04-22 01:06 | 30.35447 | -85.79597 | 63 ft | 12 kts | 159° |
| 2026-04-22 01:06 | 30.35361 | -85.79559 | 61 ft | 14 kts | 159° |
| 2026-04-22 01:06 | 30.35266 | -85.79518 | 66 ft | 15 kts | 159° |
| 2026-04-22 01:07 | 30.35166 | -85.79475 | 64 ft | 16 kts | 160° |
| 2026-04-22 01:07 | 30.35053 | -85.79425 | 64 ft | 18 kts | 159° |
| 2026-04-22 01:07 | 30.34932 | -85.79373 | 68 ft | 19 kts | 160° |
| 2026-04-22 01:07 | 30.34807 | -85.79319 | 58 ft | 20 kts | 160° |
| 2026-04-22 01:08 | 30.34675 | -85.79262 | 66 ft | 20 kts | 159° |
| 2026-04-22 01:08 | 30.34553 | -85.79208 | 68 ft | 18 kts | 158° |
| 2026-04-22 01:08 | 30.34511 | -85.79117 | 66 ft | 0 kts | 72° |
| 2026-04-22 01:08 | 30.34511 | -85.79116 | 66 ft | 0 kts | 72° |
| 2026-04-22 01:09 | 30.34512 | -85.79113 | 65 ft | 1 kts | 72° |
| 2026-04-22 01:09 | 30.34517 | -85.79091 | 66 ft | 5 kts | 77° |
| 2026-04-22 01:09 | 30.34530 | -85.79037 | 69 ft | 8 kts | 61° |
| 2026-04-22 01:10 | 30.34586 | -85.79020 | 68 ft | 10 kts | 343° |
| 2026-04-22 01:10 | 30.34597 | -85.79024 | 62 ft | 0 kts | 338° |
| 2026-04-22 01:10 | 30.34601 | -85.79027 | 63 ft | 10 kts | 338° |
| 2026-04-22 01:10 | 30.34854 | -85.79138 | 63 ft | 69 kts | 340° |
| 2026-04-22 01:11 | 30.35469 | -85.79406 | 61 ft | 118 kts | 339° |
| 2026-04-22 01:11 | 30.36358 | -85.79800 | 103 ft | 149 kts | 339° |
| 2026-04-22 01:11 | 30.37406 | -85.80200 | 294 ft | 169 kts | 339° |
| 2026-04-22 01:11 | 30.38454 | -85.80627 | 989 ft | 153 kts | 338° |
| 2026-04-22 01:12 | 30.39443 | -85.81064 | 1554 ft | 153 kts | 336° |
| 2026-04-22 01:12 | 30.40485 | -85.81505 | 1939 ft | 166 kts | 347° |
| 2026-04-22 01:12 | 30.41647 | -85.81206 | 2125 ft | 193 kts | 42° |
| 2026-04-22 01:12 | 30.42302 | -85.79794 | 2409 ft | 215 kts | 89° |
| 2026-04-22 01:13 | 30.41938 | -85.78072 | 2854 ft | 231 kts | 117° |
| 2026-04-22 01:13 | 30.41225 | -85.76329 | 3423 ft | 247 kts | 114° |
| 2026-04-22 01:13 | 30.40578 | -85.74427 | 4055 ft | 259 kts | 104° |
| 2026-04-22 01:13 | 30.40260 | -85.72374 | 4959 ft | 260 kts | 95° |
| 2026-04-22 01:14 | 30.40217 | -85.70291 | 5868 ft | 259 kts | 88° |
| 2026-04-22 01:14 | 30.40386 | -85.68213 | 6740 ft | 260 kts | 80° |
| 2026-04-22 01:14 | 30.40797 | -85.66153 | 7444 ft | 266 kts | 73° |
| 2026-04-22 01:14 | 30.41418 | -85.64105 | 8137 ft | 272 kts | 69° |
| 2026-04-22 01:15 | 30.42201 | -85.62076 | 8835 ft | 279 kts | 65° |
| 2026-04-22 01:15 | 30.43104 | -85.60050 | 9526 ft | 286 kts | 63° |
| 2026-04-22 01:15 | 30.44065 | -85.58004 | 10218 ft | 293 kts | 63° |
| 2026-04-22 01:15 | 30.45049 | -85.55915 | 10871 ft | 297 kts | 62° |
| 2026-04-22 01:16 | 30.46069 | -85.53750 | 11170 ft | 317 kts | 62° |
| 2026-04-22 01:16 | 30.47146 | -85.51426 | 11412 ft | 337 kts | 63° |
| 2026-04-22 01:16 | 30.48270 | -85.48964 | 11739 ft | 353 kts | 63° |
| 2026-04-22 01:16 | 30.49423 | -85.46430 | 12353 ft | 358 kts | 63° |
| 2026-04-22 01:17 | 30.50592 | -85.43854 | 13012 ft | 363 kts | 63° |
| 2026-04-22 01:17 | 30.51771 | -85.41251 | 13674 ft | 367 kts | 63° |
| 2026-04-22 01:17 | 30.52967 | -85.38614 | 14319 ft | 371 kts | 63° |
| 2026-04-22 01:17 | 30.54173 | -85.35948 | 14920 ft | 375 kts | 62° |
| 2026-04-22 01:18 | 30.55394 | -85.33252 | 15507 ft | 380 kts | 62° |
| 2026-04-22 01:18 | 30.56627 | -85.30523 | 16070 ft | 384 kts | 62° |
| 2026-04-22 01:18 | 30.57874 | -85.27766 | 16636 ft | 387 kts | 62° |
| 2026-04-22 01:18 | 30.59129 | -85.24987 | 17187 ft | 391 kts | 62° |
| 2026-04-22 01:19 | 30.60395 | -85.22177 | 17723 ft | 394 kts | 62° |
| 2026-04-22 01:19 | 30.61673 | -85.19345 | 18259 ft | 398 kts | 62° |
| 2026-04-22 01:19 | 30.62942 | -85.16527 | 18736 ft | 401 kts | 62° |
| 2026-04-22 01:19 | 30.64238 | -85.13639 | 19164 ft | 405 kts | 62° |
| 2026-04-22 01:20 | 30.65552 | -85.10726 | 19590 ft | 409 kts | 62° |
| 2026-04-22 01:20 | 30.66876 | -85.07777 | 20006 ft | 414 kts | 62° |
| 2026-04-22 01:20 | 30.68214 | -85.04803 | 20407 ft | 418 kts | 61° |
| 2026-04-22 01:20 | 30.69564 | -85.01798 | 20808 ft | 421 kts | 61° |
| 2026-04-22 01:21 | 30.70922 | -84.98765 | 21183 ft | 425 kts | 61° |
| 2026-04-22 01:21 | 30.72296 | -84.95704 | 21558 ft | 429 kts | 61° |
| 2026-04-22 01:21 | 30.73679 | -84.92614 | 21923 ft | 433 kts | 61° |
| 2026-04-22 01:21 | 30.75079 | -84.89499 | 22285 ft | 437 kts | 61° |
| 2026-04-22 01:22 | 30.76487 | -84.86354 | 22641 ft | 440 kts | 60° |
| 2026-04-22 01:22 | 30.77912 | -84.83188 | 22974 ft | 444 kts | 60° |
| 2026-04-22 01:22 | 30.79359 | -84.79995 | 23146 ft | 448 kts | 60° |
| 2026-04-22 01:22 | 30.80846 | -84.76801 | 23217 ft | 450 kts | 59° |
| 2026-04-22 01:23 | 30.82356 | -84.73604 | 23246 ft | 452 kts | 59° |
| 2026-04-22 01:23 | 30.83869 | -84.70394 | 23267 ft | 453 kts | 59° |
| 2026-04-22 01:23 | 30.85389 | -84.67174 | 23271 ft | 454 kts | 59° |
| 2026-04-22 01:23 | 30.86911 | -84.63943 | 23274 ft | 456 kts | 59° |
| 2026-04-22 01:24 | 30.88436 | -84.60705 | 23277 ft | 457 kts | 59° |
| 2026-04-22 01:24 | 30.89965 | -84.57456 | 23277 ft | 458 kts | 59° |
| 2026-04-22 01:24 | 30.91496 | -84.54198 | 23276 ft | 459 kts | 59° |
| 2026-04-22 01:24 | 30.93031 | -84.50929 | 23278 ft | 460 kts | 59° |
| 2026-04-22 01:25 | 30.94568 | -84.47654 | 23277 ft | 461 kts | 59° |
| 2026-04-22 01:25 | 30.96109 | -84.44370 | 23277 ft | 462 kts | 59° |
| 2026-04-22 01:25 | 30.97648 | -84.41084 | 23273 ft | 463 kts | 59° |
| 2026-04-22 01:25 | 30.99193 | -84.37784 | 23273 ft | 464 kts | 59° |
| 2026-04-22 01:26 | 31.00720 | -84.34521 | 23273 ft | 465 kts | 59° |
| 2026-04-22 01:26 | 31.02268 | -84.31209 | 23280 ft | 466 kts | 59° |
| 2026-04-22 01:26 | 31.03818 | -84.27888 | 23285 ft | 467 kts | 59° |
| 2026-04-22 01:26 | 31.05370 | -84.24559 | 23285 ft | 467 kts | 59° |
| 2026-04-22 01:27 | 31.06926 | -84.21230 | 23285 ft | 468 kts | 59° |
| 2026-04-22 01:27 | 31.08502 | -84.17847 | 23284 ft | 469 kts | 59° |
| 2026-04-22 01:27 | 31.10035 | -84.14545 | 23287 ft | 469 kts | 59° |
| 2026-04-22 01:27 | 31.11592 | -84.11195 | 23283 ft | 470 kts | 59° |
| 2026-04-22 01:28 | 31.13150 | -84.07839 | 23283 ft | 470 kts | 59° |
| 2026-04-22 01:28 | 31.14707 | -84.04483 | 23284 ft | 471 kts | 59° |
| 2026-04-22 01:28 | 31.16266 | -84.01120 | 23291 ft | 471 kts | 59° |
| 2026-04-22 01:28 | 31.17825 | -83.97751 | 23289 ft | 472 kts | 59° |
| 2026-04-22 01:29 | 31.19386 | -83.94381 | 23292 ft | 472 kts | 59° |
| 2026-04-22 01:29 | 31.20945 | -83.91006 | 23293 ft | 472 kts | 59° |
| 2026-04-22 01:29 | 31.22507 | -83.87631 | 23294 ft | 472 kts | 59° |
| 2026-04-22 01:29 | 31.24114 | -83.84288 | 23295 ft | 472 kts | 58° |
| 2026-04-22 01:30 | 31.25753 | -83.80963 | 23292 ft | 472 kts | 58° |
| 2026-04-22 01:30 | 31.27379 | -83.77632 | 23292 ft | 472 kts | 58° |
| 2026-04-22 01:30 | 31.29001 | -83.74296 | 23287 ft | 472 kts | 58° |
| 2026-04-22 01:30 | 31.30627 | -83.70959 | 23290 ft | 472 kts | 58° |
| 2026-04-22 01:31 | 31.32248 | -83.67625 | 23296 ft | 472 kts | 58° |
| 2026-04-22 01:31 | 31.33870 | -83.64287 | 23298 ft | 472 kts | 58° |
| 2026-04-22 01:31 | 31.35493 | -83.60952 | 23302 ft | 472 kts | 58° |
| 2026-04-22 01:31 | 31.37113 | -83.57612 | 23302 ft | 472 kts | 58° |
| 2026-04-22 01:32 | 31.38729 | -83.54277 | 23303 ft | 471 kts | 58° |
| 2026-04-22 01:32 | 31.40347 | -83.50940 | 23307 ft | 471 kts | 58° |
| 2026-04-22 01:32 | 31.41962 | -83.47602 | 23305 ft | 471 kts | 58° |
| 2026-04-22 01:32 | 31.43575 | -83.44269 | 23306 ft | 470 kts | 58° |
| 2026-04-22 01:33 | 31.45186 | -83.40935 | 23305 ft | 470 kts | 58° |
| 2026-04-22 01:33 | 31.46794 | -83.37604 | 23302 ft | 470 kts | 58° |
| 2026-04-22 01:33 | 31.48402 | -83.34275 | 23295 ft | 469 kts | 58° |
| 2026-04-22 01:33 | 31.50007 | -83.30946 | 23294 ft | 469 kts | 58° |
| 2026-04-22 01:34 | 31.51610 | -83.27616 | 23294 ft | 469 kts | 58° |
| 2026-04-22 01:34 | 31.53210 | -83.24290 | 23295 ft | 468 kts | 58° |
| 2026-04-22 01:34 | 31.54810 | -83.20968 | 23297 ft | 468 kts | 58° |
| 2026-04-22 01:34 | 31.56407 | -83.17641 | 23297 ft | 468 kts | 58° |
| 2026-04-22 01:35 | 31.57999 | -83.14323 | 23295 ft | 467 kts | 58° |
| 2026-04-22 01:35 | 31.59570 | -83.11044 | 23297 ft | 467 kts | 58° |
| 2026-04-22 01:35 | 31.61181 | -83.07682 | 23292 ft | 467 kts | 58° |
| 2026-04-22 01:35 | 31.62749 | -83.04409 | 23294 ft | 466 kts | 58° |
| 2026-04-22 01:36 | 31.64336 | -83.01094 | 23289 ft | 466 kts | 58° |
| 2026-04-22 01:36 | 31.65920 | -82.97776 | 23291 ft | 466 kts | 58° |
| 2026-04-22 01:36 | 31.67502 | -82.94464 | 23289 ft | 465 kts | 58° |
| 2026-04-22 01:36 | 31.69084 | -82.91146 | 23303 ft | 465 kts | 58° |
| 2026-04-22 01:37 | 31.70663 | -82.87833 | 23302 ft | 465 kts | 58° |
| 2026-04-22 01:37 | 31.72240 | -82.84521 | 23295 ft | 465 kts | 58° |
| 2026-04-22 01:37 | 31.73816 | -82.81208 | 23299 ft | 464 kts | 58° |
| 2026-04-22 01:37 | 31.75389 | -82.77898 | 23307 ft | 464 kts | 58° |
| 2026-04-22 01:38 | 31.76961 | -82.74588 | 23313 ft | 464 kts | 58° |
| 2026-04-22 01:38 | 31.78524 | -82.71295 | 23216 ft | 454 kts | 58° |
| 2026-04-22 01:38 | 31.80035 | -82.68115 | 22836 ft | 438 kts | 58° |
| 2026-04-22 01:38 | 31.81494 | -82.65035 | 22435 ft | 425 kts | 59° |
| 2026-04-22 01:39 | 31.82911 | -82.62035 | 22002 ft | 414 kts | 59° |
| 2026-04-22 01:39 | 31.84295 | -82.59108 | 21568 ft | 405 kts | 59° |
| 2026-04-22 01:39 | 31.85651 | -82.56237 | 21132 ft | 398 kts | 59° |
| 2026-04-22 01:39 | 31.86983 | -82.53417 | 20707 ft | 391 kts | 59° |
| 2026-04-22 01:40 | 31.88291 | -82.50646 | 20284 ft | 385 kts | 59° |
| 2026-04-22 01:40 | 31.89578 | -82.47914 | 19870 ft | 379 kts | 60° |
| 2026-04-22 01:40 | 31.90847 | -82.45220 | 19465 ft | 374 kts | 60° |
| 2026-04-22 01:40 | 31.92101 | -82.42556 | 19063 ft | 370 kts | 60° |
| 2026-04-22 01:41 | 31.93339 | -82.39926 | 18665 ft | 365 kts | 60° |
| 2026-04-22 01:41 | 31.94563 | -82.37321 | 18229 ft | 362 kts | 60° |
| 2026-04-22 01:41 | 31.95773 | -82.34740 | 17784 ft | 359 kts | 60° |
| 2026-04-22 01:41 | 31.96977 | -82.32181 | 17348 ft | 356 kts | 60° |
| 2026-04-22 01:42 | 31.98168 | -82.29642 | 16919 ft | 353 kts | 60° |
| 2026-04-22 01:42 | 31.99349 | -82.27121 | 16497 ft | 350 kts | 60° |
| 2026-04-22 01:42 | 32.00127 | -82.25459 | 16219 ft | 349 kts | 60° |
| 2026-04-22 01:42 | 32.01072 | -82.23439 | 15883 ft | 347 kts | 60° |
| 2026-04-22 01:43 | 32.02235 | -82.20957 | 15470 ft | 345 kts | 60° |
| 2026-04-22 01:43 | 32.03387 | -82.18492 | 15065 ft | 343 kts | 60° |
| 2026-04-22 01:43 | 32.04536 | -82.16038 | 14665 ft | 341 kts | 60° |
| 2026-04-22 01:43 | 32.05674 | -82.13599 | 14268 ft | 339 kts | 60° |
| 2026-04-22 01:44 | 32.06807 | -82.11172 | 13840 ft | 337 kts | 60° |
| 2026-04-22 01:44 | 32.07935 | -82.08757 | 13399 ft | 335 kts | 60° |
| 2026-04-22 01:44 | 32.09046 | -82.06352 | 12963 ft | 333 kts | 63° |
| 2026-04-22 01:44 | 32.09759 | -82.03773 | 12536 ft | 332 kts | 79° |
| 2026-04-22 01:45 | 32.10011 | -82.01081 | 12117 ft | 329 kts | 85° |
| 2026-04-22 01:45 | 32.10120 | -81.98392 | 11728 ft | 327 kts | 86° |
| 2026-04-22 01:45 | 32.10212 | -81.95748 | 11339 ft | 317 kts | 86° |
| 2026-04-22 01:45 | 32.10303 | -81.93201 | 10950 ft | 306 kts | 86° |
| 2026-04-22 01:46 | 32.10422 | -81.90736 | 10561 ft | 297 kts | 85° |
| 2026-04-22 01:46 | 32.10564 | -81.88306 | 10189 ft | 297 kts | 85° |
| 2026-04-22 01:46 | 32.10708 | -81.85888 | 9823 ft | 295 kts | 85° |
| 2026-04-22 01:46 | 32.10845 | -81.83511 | 9466 ft | 293 kts | 84° |
| 2026-04-22 01:47 | 32.10993 | -81.81093 | 9102 ft | 291 kts | 85° |
| 2026-04-22 01:47 | 32.11129 | -81.78752 | 8745 ft | 286 kts | 85° |
| 2026-04-22 01:47 | 32.11261 | -81.76450 | 8388 ft | 276 kts | 84° |
| 2026-04-22 01:47 | 32.11394 | -81.74225 | 8048 ft | 267 kts | 84° |
| 2026-04-22 01:48 | 32.11527 | -81.72073 | 7708 ft | 259 kts | 84° |
| 2026-04-22 01:48 | 32.11648 | -81.69982 | 7402 ft | 253 kts | 84° |
| 2026-04-22 01:48 | 32.11764 | -81.67967 | 7135 ft | 240 kts | 84° |
| 2026-04-22 01:48 | 32.11838 | -81.66684 | 6942 ft | 233 kts | 84° |
| 2026-04-22 01:49 | 32.11951 | -81.64809 | 6639 ft | 225 kts | 84° |
| 2026-04-22 01:49 | 32.12054 | -81.62994 | 6307 ft | 218 kts | 84° |
| 2026-04-22 01:49 | 32.12148 | -81.61231 | 5985 ft | 213 kts | 84° |
| 2026-04-22 01:49 | 32.12242 | -81.59464 | 5663 ft | 217 kts | 84° |
| 2026-04-22 01:50 | 32.12336 | -81.57682 | 5408 ft | 218 kts | 85° |
| 2026-04-22 01:50 | 32.12430 | -81.55910 | 5187 ft | 212 kts | 85° |
| 2026-04-22 01:50 | 32.12516 | -81.54211 | 4934 ft | 205 kts | 85° |
| 2026-04-22 01:50 | 32.12602 | -81.52531 | 4668 ft | 206 kts | 85° |
| 2026-04-22 01:51 | 32.12688 | -81.50842 | 4416 ft | 206 kts | 85° |
| 2026-04-22 01:51 | 32.12775 | -81.49150 | 4175 ft | 206 kts | 85° |
| 2026-04-22 01:51 | 32.12862 | -81.47462 | 3926 ft | 206 kts | 85° |
| 2026-04-22 01:51 | 32.12947 | -81.45775 | 3683 ft | 205 kts | 85° |
| 2026-04-22 01:52 | 32.13031 | -81.44095 | 3426 ft | 205 kts | 85° |
| 2026-04-22 01:52 | 32.13116 | -81.42422 | 3173 ft | 203 kts | 85° |
| 2026-04-22 01:52 | 32.13200 | -81.40767 | 2915 ft | 201 kts | 86° |
| 2026-04-22 01:52 | 32.13283 | -81.39142 | 2670 ft | 195 kts | 86° |
| 2026-04-22 01:53 | 32.13363 | -81.37566 | 2413 ft | 190 kts | 87° |
| 2026-04-22 01:53 | 32.13440 | -81.36055 | 2175 ft | 183 kts | 87° |
| 2026-04-22 01:53 | 32.13508 | -81.34605 | 2066 ft | 170 kts | 88° |
| 2026-04-22 01:53 | 32.13419 | -81.33265 | 1849 ft | 161 kts | 102° |
| 2026-04-22 01:54 | 32.13145 | -81.32054 | 1690 ft | 144 kts | 101° |
| 2026-04-22 01:54 | 32.12998 | -81.30926 | 1390 ft | 135 kts | 96° |
| 2026-04-22 01:54 | 32.12940 | -81.29863 | 1278 ft | 127 kts | 92° |
| 2026-04-22 01:54 | 32.12921 | -81.28822 | 1177 ft | 131 kts | 91° |
| 2026-04-22 01:55 | 32.12918 | -81.27713 | 999 ft | 136 kts | 92° |
| 2026-04-22 01:55 | 32.12901 | -81.26599 | 802 ft | 138 kts | 90° |
| 2026-04-22 01:55 | 32.12894 | -81.25470 | 594 ft | 137 kts | 90° |
| 2026-04-22 01:55 | 32.12900 | -81.24360 | 399 ft | 134 kts | 92° |
| 2026-04-22 01:56 | 32.12881 | -81.23271 | 246 ft | 131 kts | 90° |
| 2026-04-22 01:56 | 32.12877 | -81.22202 | 121 ft | 128 kts | 91° |
| 2026-04-22 01:56 | 32.12870 | -81.21198 | 34 ft | 109 kts | 92° |
| 2026-04-22 01:56 | 32.12862 | -81.20453 | 37 ft | 74 kts | 90° |
| 2026-04-22 01:57 | 32.12857 | -81.19964 | 41 ft | 38 kts | 91° |
| 2026-04-22 01:57 | 32.12868 | -81.19825 | 44 ft | 12 kts | 31° |
| 2026-04-22 01:57 | 32.12951 | -81.19814 | 45 ft | 13 kts | 1° |
| 2026-04-22 01:57 | 32.13021 | -81.19856 | 45 ft | 12 kts | 285° |
| 2026-04-22 01:58 | 32.13020 | -81.19958 | 45 ft | 13 kts | 268° |
| 2026-04-22 01:58 | 32.13023 | -81.20064 | 45 ft | 14 kts | 272° |
| 2026-04-22 01:58 | 32.13029 | -81.20184 | 44 ft | 16 kts | 271° |
| 2026-04-22 01:58 | 32.13042 | -81.20298 | 42 ft | 8 kts | 300° |
| 2026-04-22 01:59 | 32.13083 | -81.20324 | 43 ft | 7 kts | 352° |
| 2026-04-22 01:59 | 32.13130 | -81.20328 | 44 ft | 7 kts | 359° |
| 2026-04-22 01:59 | 32.13185 | -81.20327 | 43 ft | 10 kts | 359° |
| 2026-04-22 01:59 | 32.13257 | -81.20329 | 42 ft | 11 kts | 358° |
| 2026-04-22 02:00 | 32.13334 | -81.20332 | 44 ft | 11 kts | 359° |
| 2026-04-22 02:00 | 32.13411 | -81.20335 | 45 ft | 10 kts | 347° |
| 2026-04-22 02:00 | 32.13447 | -81.20407 | 43 ft | 12 kts | 298° |
| 2026-04-22 02:00 | 32.13521 | -81.20419 | 42 ft | 12 kts | 6° |
| 2026-04-22 02:01 | 32.13606 | -81.20417 | 41 ft | 13 kts | 351° |
| 2026-04-22 02:01 | 32.13652 | -81.20499 | 36 ft | 16 kts | 261° |
| 2026-04-22 02:01 | 32.13620 | -81.20630 | 34 ft | 18 kts | 270° |
| 2026-04-22 02:01 | 32.13645 | -81.20779 | 32 ft | 18 kts | 285° |
| 2026-04-22 02:02 | 32.13668 | -81.20867 | 32 ft | 10 kts | 267° |
| 2026-04-22 02:02 | 32.13643 | -81.20904 | 32 ft | 3 kts | 171° |
| 2026-04-22 02:02 | 32.13620 | -81.20900 | 33 ft | 1 kts | 175° |
| 2026-04-22 02:02 | 32.13618 | -81.20900 | 33 ft | 0 kts | 176° |
| 2026-04-22 02:03 | 32.13614 | -81.20900 | 33 ft | 2 kts | 180° |
| 2026-04-22 02:03 | 32.13605 | -81.20900 | 33 ft | 0 kts | 182° |
| 2026-04-22 02:03 | 32.13604 | -81.20900 | 33 ft | 0 kts | 182° |